sensor_id;sensor_type;location;lat;lon;timestamp;P1;durP1;ratioP1;P2;durP2;ratioP2
4278;SDS011;2153;47.744;10.580;2023-07-29T00:01:57;14.93;;;2.87;;
4278;SDS011;2153;47.744;10.580;2023-07-29T00:04:23;14.60;;;3.17;;
4278;SDS011;2153;47.744;10.580;2023-07-29T00:06:50;13.47;;;3.30;;
4278;SDS011;2153;47.744;10.580;2023-07-29T00:09:17;13.40;;;3.37;;
4278;SDS011;2153;47.744;10.580;2023-07-29T00:11:45;15.70;;;3.47;;
4278;SDS011;2153;47.744;10.580;2023-07-29T00:14:12;12.33;;;2.70;;
4278;SDS011;2153;47.744;10.580;2023-07-29T00:16:38;12.90;;;2.70;;
4278;SDS011;2153;47.744;10.580;2023-07-29T00:19:06;15.03;;;2.93;;
4278;SDS011;2153;47.744;10.580;2023-07-29T00:21:33;13.03;;;2.93;;
4278;SDS011;2153;47.744;10.580;2023-07-29T00:23:59;13.60;;;3.20;;
4278;SDS011;2153;47.744;10.580;2023-07-29T00:26:27;12.13;;;2.60;;
4278;SDS011;2153;47.744;10.580;2023-07-29T00:28:56;13.23;;;3.03;;
4278;SDS011;2153;47.744;10.580;2023-07-29T00:31:22;15.63;;;3.50;;
4278;SDS011;2153;47.744;10.580;2023-07-29T00:33:49;14.47;;;2.63;;
4278;SDS011;2153;47.744;10.580;2023-07-29T00:36:17;15.33;;;2.50;;
4278;SDS011;2153;47.744;10.580;2023-07-29T00:38:44;12.47;;;2.60;;
4278;SDS011;2153;47.744;10.580;2023-07-29T00:41:11;13.90;;;3.90;;
4278;SDS011;2153;47.744;10.580;2023-07-29T00:43:39;12.63;;;2.87;;
4278;SDS011;2153;47.744;10.580;2023-07-29T00:46:07;13.30;;;2.53;;
4278;SDS011;2153;47.744;10.580;2023-07-29T00:48:35;14.20;;;3.10;;
4278;SDS011;2153;47.744;10.580;2023-07-29T00:51:02;15.20;;;3.33;;
4278;SDS011;2153;47.744;10.580;2023-07-29T00:53:29;14.40;;;2.83;;
4278;SDS011;2153;47.744;10.580;2023-07-29T00:55:55;12.70;;;2.93;;
4278;SDS011;2153;47.744;10.580;2023-07-29T00:58:22;12.73;;;3.00;;
4278;SDS011;2153;47.744;10.580;2023-07-29T01:00:49;17.80;;;3.20;;
4278;SDS011;2153;47.744;10.580;2023-07-29T01:03:18;15.33;;;4.33;;
4278;SDS011;2153;47.744;10.580;2023-07-29T01:05:46;12.40;;;3.00;;
4278;SDS011;2153;47.744;10.580;2023-07-29T01:08:21;12.40;;;3.03;;
4278;SDS011;2153;47.744;10.580;2023-07-29T01:10:57;12.73;;;3.27;;
4278;SDS011;2153;47.744;10.580;2023-07-29T01:13:31;13.70;;;3.10;;
4278;SDS011;2153;47.744;10.580;2023-07-29T01:16:04;12.83;;;3.07;;
4278;SDS011;2153;47.744;10.580;2023-07-29T01:18:40;13.27;;;3.33;;
4278;SDS011;2153;47.744;10.580;2023-07-29T01:21:08;14.40;;;3.93;;
4278;SDS011;2153;47.744;10.580;2023-07-29T01:23:38;14.40;;;3.33;;
4278;SDS011;2153;47.744;10.580;2023-07-29T01:26:05;14.30;;;3.07;;
4278;SDS011;2153;47.744;10.580;2023-07-29T01:28:32;13.90;;;3.23;;
4278;SDS011;2153;47.744;10.580;2023-07-29T01:31:01;13.70;;;3.53;;
4278;SDS011;2153;47.744;10.580;2023-07-29T01:33:34;19.37;;;4.70;;
4278;SDS011;2153;47.744;10.580;2023-07-29T01:36:07;18.90;;;4.43;;
4278;SDS011;2153;47.744;10.580;2023-07-29T01:38:40;13.93;;;4.10;;
4278;SDS011;2153;47.744;10.580;2023-07-29T01:41:09;14.30;;;3.50;;
4278;SDS011;2153;47.744;10.580;2023-07-29T01:43:36;14.43;;;3.57;;
4278;SDS011;2153;47.744;10.580;2023-07-29T01:46:08;14.20;;;3.67;;
4278;SDS011;2153;47.744;10.580;2023-07-29T01:48:36;14.43;;;4.00;;
4278;SDS011;2153;47.744;10.580;2023-07-29T01:51:03;16.23;;;4.20;;
4278;SDS011;2153;47.744;10.580;2023-07-29T01:53:30;14.77;;;4.20;;
4278;SDS011;2153;47.744;10.580;2023-07-29T01:55:58;14.43;;;4.13;;
4278;SDS011;2153;47.744;10.580;2023-07-29T01:58:24;18.53;;;5.10;;
4278;SDS011;2153;47.744;10.580;2023-07-29T02:00:51;14.97;;;4.30;;
4278;SDS011;2153;47.744;10.580;2023-07-29T02:03:18;15.40;;;4.60;;
4278;SDS011;2153;47.744;10.580;2023-07-29T02:05:45;17.00;;;4.00;;
4278;SDS011;2153;47.744;10.580;2023-07-29T02:08:11;12.77;;;3.63;;
4278;SDS011;2153;47.744;10.580;2023-07-29T02:10:39;15.20;;;3.90;;
4278;SDS011;2153;47.744;10.580;2023-07-29T02:13:07;15.37;;;4.13;;
4278;SDS011;2153;47.744;10.580;2023-07-29T02:15:34;30.13;;;4.03;;
4278;SDS011;2153;47.744;10.580;2023-07-29T02:18:01;16.67;;;5.30;;
4278;SDS011;2153;47.744;10.580;2023-07-29T02:20:28;16.90;;;5.10;;
4278;SDS011;2153;47.744;10.580;2023-07-29T02:22:55;17.03;;;4.37;;
4278;SDS011;2153;47.744;10.580;2023-07-29T02:25:21;14.63;;;4.20;;
4278;SDS011;2153;47.744;10.580;2023-07-29T02:27:48;15.10;;;4.57;;
4278;SDS011;2153;47.744;10.580;2023-07-29T02:30:16;13.93;;;3.90;;
4278;SDS011;2153;47.744;10.580;2023-07-29T02:32:43;13.90;;;4.00;;
4278;SDS011;2153;47.744;10.580;2023-07-29T02:35:11;18.00;;;4.43;;
4278;SDS011;2153;47.744;10.580;2023-07-29T02:37:38;13.97;;;3.50;;
4278;SDS011;2153;47.744;10.580;2023-07-29T02:40:05;13.90;;;4.20;;
4278;SDS011;2153;47.744;10.580;2023-07-29T02:42:32;15.70;;;4.10;;
4278;SDS011;2153;47.744;10.580;2023-07-29T02:44:59;14.60;;;4.10;;
4278;SDS011;2153;47.744;10.580;2023-07-29T02:47:27;15.90;;;4.50;;
4278;SDS011;2153;47.744;10.580;2023-07-29T02:49:54;18.83;;;4.27;;
4278;SDS011;2153;47.744;10.580;2023-07-29T02:52:21;15.27;;;4.40;;
4278;SDS011;2153;47.744;10.580;2023-07-29T02:54:48;13.30;;;3.67;;
4278;SDS011;2153;47.744;10.580;2023-07-29T02:57:14;15.17;;;4.73;;
4278;SDS011;2153;47.744;10.580;2023-07-29T02:59:42;14.43;;;4.23;;
4278;SDS011;2153;47.744;10.580;2023-07-29T03:02:09;14.30;;;4.50;;
4278;SDS011;2153;47.744;10.580;2023-07-29T03:04:37;16.13;;;4.23;;
4278;SDS011;2153;47.744;10.580;2023-07-29T03:07:03;16.70;;;4.30;;
4278;SDS011;2153;47.744;10.580;2023-07-29T03:09:30;23.20;;;3.70;;
4278;SDS011;2153;47.744;10.580;2023-07-29T03:11:58;18.23;;;3.80;;
4278;SDS011;2153;47.744;10.580;2023-07-29T03:14:24;14.43;;;3.87;;
4278;SDS011;2153;47.744;10.580;2023-07-29T03:16:51;14.17;;;3.90;;
4278;SDS011;2153;47.744;10.580;2023-07-29T03:19:18;13.40;;;3.90;;
4278;SDS011;2153;47.744;10.580;2023-07-29T03:21:46;14.67;;;3.90;;
4278;SDS011;2153;47.744;10.580;2023-07-29T03:24:13;18.33;;;4.30;;
4278;SDS011;2153;47.744;10.580;2023-07-29T03:26:39;15.50;;;4.40;;
4278;SDS011;2153;47.744;10.580;2023-07-29T03:29:06;13.70;;;3.60;;
4278;SDS011;2153;47.744;10.580;2023-07-29T03:31:33;14.70;;;4.70;;
4278;SDS011;2153;47.744;10.580;2023-07-29T03:34:00;14.00;;;4.23;;
4278;SDS011;2153;47.744;10.580;2023-07-29T03:36:26;16.50;;;4.60;;
4278;SDS011;2153;47.744;10.580;2023-07-29T03:38:55;12.50;;;3.30;;
4278;SDS011;2153;47.744;10.580;2023-07-29T03:41:21;16.53;;;3.83;;
4278;SDS011;2153;47.744;10.580;2023-07-29T03:43:48;13.23;;;3.70;;
4278;SDS011;2153;47.744;10.580;2023-07-29T03:46:15;15.30;;;3.30;;
4278;SDS011;2153;47.744;10.580;2023-07-29T03:48:44;13.67;;;3.40;;
4278;SDS011;2153;47.744;10.580;2023-07-29T03:51:11;14.00;;;3.00;;
4278;SDS011;2153;47.744;10.580;2023-07-29T03:53:38;12.00;;;2.60;;
4278;SDS011;2153;47.744;10.580;2023-07-29T03:56:06;12.97;;;3.30;;
4278;SDS011;2153;47.744;10.580;2023-07-29T03:58:33;18.23;;;3.37;;
4278;SDS011;2153;47.744;10.580;2023-07-29T04:01:00;15.07;;;3.10;;
4278;SDS011;2153;47.744;10.580;2023-07-29T04:03:26;13.47;;;3.70;;
4278;SDS011;2153;47.744;10.580;2023-07-29T04:05:53;14.03;;;3.23;;
4278;SDS011;2153;47.744;10.580;2023-07-29T04:08:20;14.67;;;3.57;;
4278;SDS011;2153;47.744;10.580;2023-07-29T04:10:47;13.13;;;3.40;;
4278;SDS011;2153;47.744;10.580;2023-07-29T04:13:15;15.73;;;3.80;;
4278;SDS011;2153;47.744;10.580;2023-07-29T04:15:42;13.60;;;4.00;;
4278;SDS011;2153;47.744;10.580;2023-07-29T04:18:09;16.80;;;3.20;;
4278;SDS011;2153;47.744;10.580;2023-07-29T04:20:35;13.43;;;3.43;;
4278;SDS011;2153;47.744;10.580;2023-07-29T04:23:02;15.97;;;3.50;;
4278;SDS011;2153;47.744;10.580;2023-07-29T04:25:29;13.80;;;3.70;;
4278;SDS011;2153;47.744;10.580;2023-07-29T04:27:55;12.90;;;3.10;;
4278;SDS011;2153;47.744;10.580;2023-07-29T04:30:23;12.73;;;3.23;;
4278;SDS011;2153;47.744;10.580;2023-07-29T04:32:50;13.00;;;3.40;;
4278;SDS011;2153;47.744;10.580;2023-07-29T04:35:17;16.47;;;3.90;;
4278;SDS011;2153;47.744;10.580;2023-07-29T04:37:44;14.20;;;3.23;;
4278;SDS011;2153;47.744;10.580;2023-07-29T04:40:13;14.77;;;3.50;;
4278;SDS011;2153;47.744;10.580;2023-07-29T04:42:39;16.87;;;3.83;;
4278;SDS011;2153;47.744;10.580;2023-07-29T04:45:06;14.57;;;3.60;;
4278;SDS011;2153;47.744;10.580;2023-07-29T04:47:35;13.10;;;3.00;;
4278;SDS011;2153;47.744;10.580;2023-07-29T04:50:01;16.80;;;4.77;;
4278;SDS011;2153;47.744;10.580;2023-07-29T04:52:28;16.83;;;4.03;;
4278;SDS011;2153;47.744;10.580;2023-07-29T04:54:55;13.73;;;3.90;;
4278;SDS011;2153;47.744;10.580;2023-07-29T04:57:22;14.23;;;3.93;;
4278;SDS011;2153;47.744;10.580;2023-07-29T04:59:49;15.77;;;4.17;;
4278;SDS011;2153;47.744;10.580;2023-07-29T05:02:15;14.70;;;3.33;;
4278;SDS011;2153;47.744;10.580;2023-07-29T05:04:43;14.00;;;4.07;;
4278;SDS011;2153;47.744;10.580;2023-07-29T05:07:10;13.80;;;4.07;;
4278;SDS011;2153;47.744;10.580;2023-07-29T05:09:37;17.77;;;4.10;;
4278;SDS011;2153;47.744;10.580;2023-07-29T05:12:04;20.97;;;4.03;;
4278;SDS011;2153;47.744;10.580;2023-07-29T05:14:31;14.47;;;4.50;;
4278;SDS011;2153;47.744;10.580;2023-07-29T05:16:58;16.40;;;3.87;;
4278;SDS011;2153;47.744;10.580;2023-07-29T05:19:25;16.33;;;4.10;;
4278;SDS011;2153;47.744;10.580;2023-07-29T05:21:53;16.67;;;4.27;;
4278;SDS011;2153;47.744;10.580;2023-07-29T05:24:20;14.10;;;4.00;;
4278;SDS011;2153;47.744;10.580;2023-07-29T05:26:47;14.47;;;4.20;;
4278;SDS011;2153;47.744;10.580;2023-07-29T05:29:14;13.87;;;3.97;;
4278;SDS011;2153;47.744;10.580;2023-07-29T05:31:41;14.57;;;3.87;;
4278;SDS011;2153;47.744;10.580;2023-07-29T05:34:08;13.90;;;4.37;;
4278;SDS011;2153;47.744;10.580;2023-07-29T05:36:34;13.93;;;4.00;;
4278;SDS011;2153;47.744;10.580;2023-07-29T05:39:02;13.23;;;3.90;;
4278;SDS011;2153;47.744;10.580;2023-07-29T05:41:29;14.07;;;4.17;;
4278;SDS011;2153;47.744;10.580;2023-07-29T05:43:56;14.90;;;4.50;;
4278;SDS011;2153;47.744;10.580;2023-07-29T05:46:22;17.60;;;4.90;;
4278;SDS011;2153;47.744;10.580;2023-07-29T05:48:49;13.30;;;4.10;;
4278;SDS011;2153;47.744;10.580;2023-07-29T05:51:16;15.73;;;4.60;;
4278;SDS011;2153;47.744;10.580;2023-07-29T05:53:42;18.47;;;4.10;;
4278;SDS011;2153;47.744;10.580;2023-07-29T05:56:11;20.00;;;4.40;;
4278;SDS011;2153;47.744;10.580;2023-07-29T05:58:37;15.30;;;3.83;;
4278;SDS011;2153;47.744;10.580;2023-07-29T06:01:04;14.60;;;4.63;;
4278;SDS011;2153;47.744;10.580;2023-07-29T06:03:31;14.37;;;4.90;;
4278;SDS011;2153;47.744;10.580;2023-07-29T06:05:57;15.87;;;4.93;;
4278;SDS011;2153;47.744;10.580;2023-07-29T06:08:24;15.17;;;4.13;;
4278;SDS011;2153;47.744;10.580;2023-07-29T06:10:53;15.37;;;4.83;;
4278;SDS011;2153;47.744;10.580;2023-07-29T06:13:21;14.70;;;4.67;;
4278;SDS011;2153;47.744;10.580;2023-07-29T06:15:48;16.40;;;4.60;;
4278;SDS011;2153;47.744;10.580;2023-07-29T06:18:14;14.90;;;4.67;;
4278;SDS011;2153;47.744;10.580;2023-07-29T06:20:41;14.30;;;4.00;;
4278;SDS011;2153;47.744;10.580;2023-07-29T06:23:08;13.73;;;4.20;;
4278;SDS011;2153;47.744;10.580;2023-07-29T06:25:35;22.30;;;5.90;;
4278;SDS011;2153;47.744;10.580;2023-07-29T06:28:01;16.10;;;5.30;;
4278;SDS011;2153;47.744;10.580;2023-07-29T06:30:29;15.30;;;4.83;;
4278;SDS011;2153;47.744;10.580;2023-07-29T06:32:56;15.50;;;5.03;;
4278;SDS011;2153;47.744;10.580;2023-07-29T06:35:23;16.10;;;4.70;;
4278;SDS011;2153;47.744;10.580;2023-07-29T06:37:49;18.03;;;4.60;;
4278;SDS011;2153;47.744;10.580;2023-07-29T06:40:16;18.13;;;4.83;;
4278;SDS011;2153;47.744;10.580;2023-07-29T06:42:43;15.60;;;4.70;;
4278;SDS011;2153;47.744;10.580;2023-07-29T06:45:10;14.17;;;4.30;;
4278;SDS011;2153;47.744;10.580;2023-07-29T06:47:38;14.63;;;3.87;;
4278;SDS011;2153;47.744;10.580;2023-07-29T06:50:05;15.70;;;4.30;;
4278;SDS011;2153;47.744;10.580;2023-07-29T06:52:32;14.73;;;5.07;;
4278;SDS011;2153;47.744;10.580;2023-07-29T06:54:58;14.50;;;4.30;;
4278;SDS011;2153;47.744;10.580;2023-07-29T06:57:25;16.27;;;4.23;;
4278;SDS011;2153;47.744;10.580;2023-07-29T06:59:52;13.30;;;4.20;;
4278;SDS011;2153;47.744;10.580;2023-07-29T07:02:18;14.13;;;4.23;;
4278;SDS011;2153;47.744;10.580;2023-07-29T07:04:46;16.20;;;4.00;;
4278;SDS011;2153;47.744;10.580;2023-07-29T07:07:13;13.83;;;3.83;;
4278;SDS011;2153;47.744;10.580;2023-07-29T07:09:41;14.50;;;4.60;;
4278;SDS011;2153;47.744;10.580;2023-07-29T07:12:08;14.73;;;4.30;;
4278;SDS011;2153;47.744;10.580;2023-07-29T07:14:34;14.50;;;4.20;;
4278;SDS011;2153;47.744;10.580;2023-07-29T07:17:01;13.97;;;4.43;;
4278;SDS011;2153;47.744;10.580;2023-07-29T07:19:28;13.83;;;3.90;;
4278;SDS011;2153;47.744;10.580;2023-07-29T07:21:56;13.57;;;4.10;;
4278;SDS011;2153;47.744;10.580;2023-07-29T07:24:23;15.47;;;3.93;;
4278;SDS011;2153;47.744;10.580;2023-07-29T07:26:49;13.60;;;3.77;;
4278;SDS011;2153;47.744;10.580;2023-07-29T07:29:16;17.63;;;4.70;;
4278;SDS011;2153;47.744;10.580;2023-07-29T07:31:47;14.90;;;4.03;;
4278;SDS011;2153;47.744;10.580;2023-07-29T07:34:16;15.60;;;4.57;;
4278;SDS011;2153;47.744;10.580;2023-07-29T07:36:43;15.87;;;4.27;;
4278;SDS011;2153;47.744;10.580;2023-07-29T07:39:11;14.73;;;4.57;;
4278;SDS011;2153;47.744;10.580;2023-07-29T07:41:37;17.57;;;4.90;;
4278;SDS011;2153;47.744;10.580;2023-07-29T07:44:04;16.23;;;5.03;;
4278;SDS011;2153;47.744;10.580;2023-07-29T07:46:31;17.23;;;5.30;;
4278;SDS011;2153;47.744;10.580;2023-07-29T07:48:57;15.27;;;4.30;;
4278;SDS011;2153;47.744;10.580;2023-07-29T07:51:24;14.07;;;4.23;;
4278;SDS011;2153;47.744;10.580;2023-07-29T07:53:51;14.20;;;4.50;;
4278;SDS011;2153;47.744;10.580;2023-07-29T07:56:19;15.73;;;4.07;;
4278;SDS011;2153;47.744;10.580;2023-07-29T07:58:45;16.03;;;3.70;;
4278;SDS011;2153;47.744;10.580;2023-07-29T08:01:12;14.60;;;3.87;;
4278;SDS011;2153;47.744;10.580;2023-07-29T08:03:39;12.80;;;3.47;;
4278;SDS011;2153;47.744;10.580;2023-07-29T08:06:06;13.63;;;3.77;;
4278;SDS011;2153;47.744;10.580;2023-07-29T08:08:32;13.10;;;3.40;;
4278;SDS011;2153;47.744;10.580;2023-07-29T08:10:59;13.43;;;3.47;;
4278;SDS011;2153;47.744;10.580;2023-07-29T08:13:27;12.70;;;3.13;;
4278;SDS011;2153;47.744;10.580;2023-07-29T08:15:54;13.37;;;3.30;;
4278;SDS011;2153;47.744;10.580;2023-07-29T08:18:21;13.27;;;3.17;;
4278;SDS011;2153;47.744;10.580;2023-07-29T08:20:51;14.40;;;4.40;;
4278;SDS011;2153;47.744;10.580;2023-07-29T08:23:19;15.67;;;4.40;;
4278;SDS011;2153;47.744;10.580;2023-07-29T08:25:50;14.63;;;4.23;;
4278;SDS011;2153;47.744;10.580;2023-07-29T08:28:18;13.37;;;3.60;;
4278;SDS011;2153;47.744;10.580;2023-07-29T08:30:46;13.70;;;3.23;;
4278;SDS011;2153;47.744;10.580;2023-07-29T08:33:13;14.47;;;4.17;;
4278;SDS011;2153;47.744;10.580;2023-07-29T08:35:39;18.23;;;4.00;;
4278;SDS011;2153;47.744;10.580;2023-07-29T08:38:06;13.30;;;3.77;;
4278;SDS011;2153;47.744;10.580;2023-07-29T08:40:34;13.83;;;3.77;;
4278;SDS011;2153;47.744;10.580;2023-07-29T08:43:03;15.00;;;3.67;;
4278;SDS011;2153;47.744;10.580;2023-07-29T08:45:31;13.97;;;3.50;;
4278;SDS011;2153;47.744;10.580;2023-07-29T08:48:05;15.23;;;3.93;;
4278;SDS011;2153;47.744;10.580;2023-07-29T08:50:34;15.70;;;3.57;;
4278;SDS011;2153;47.744;10.580;2023-07-29T08:53:03;13.70;;;3.40;;
4278;SDS011;2153;47.744;10.580;2023-07-29T08:55:30;14.00;;;3.60;;
4278;SDS011;2153;47.744;10.580;2023-07-29T08:57:58;13.13;;;3.67;;
4278;SDS011;2153;47.744;10.580;2023-07-29T09:00:26;14.63;;;3.80;;
4278;SDS011;2153;47.744;10.580;2023-07-29T09:02:53;13.17;;;3.47;;
4278;SDS011;2153;47.744;10.580;2023-07-29T09:05:21;14.57;;;3.80;;
4278;SDS011;2153;47.744;10.580;2023-07-29T09:07:48;13.90;;;4.00;;
4278;SDS011;2153;47.744;10.580;2023-07-29T09:10:19;12.95;;;3.35;;
4278;SDS011;2153;47.744;10.580;2023-07-29T09:12:47;13.05;;;3.40;;
4278;SDS011;2153;47.744;10.580;2023-07-29T09:15:25;15.90;;;3.67;;
4278;SDS011;2153;47.744;10.580;2023-07-29T09:17:53;14.40;;;4.20;;
4278;SDS011;2153;47.744;10.580;2023-07-29T09:20:24;12.87;;;3.60;;
4278;SDS011;2153;47.744;10.580;2023-07-29T09:22:51;14.53;;;4.30;;
4278;SDS011;2153;47.744;10.580;2023-07-29T09:25:22;14.07;;;3.87;;
4278;SDS011;2153;47.744;10.580;2023-07-29T09:27:49;12.17;;;3.40;;
4278;SDS011;2153;47.744;10.580;2023-07-29T09:30:16;13.00;;;3.07;;
4278;SDS011;2153;47.744;10.580;2023-07-29T09:32:43;14.03;;;3.83;;
4278;SDS011;2153;47.744;10.580;2023-07-29T09:35:10;12.10;;;3.30;;
4278;SDS011;2153;47.744;10.580;2023-07-29T09:37:39;13.17;;;3.80;;
4278;SDS011;2153;47.744;10.580;2023-07-29T09:40:06;13.27;;;4.00;;
4278;SDS011;2153;47.744;10.580;2023-07-29T09:42:39;13.47;;;3.50;;
4278;SDS011;2153;47.744;10.580;2023-07-29T09:45:06;13.57;;;3.50;;
4278;SDS011;2153;47.744;10.580;2023-07-29T09:47:33;13.27;;;3.47;;
4278;SDS011;2153;47.744;10.580;2023-07-29T09:50:00;12.30;;;3.40;;
4278;SDS011;2153;47.744;10.580;2023-07-29T09:52:26;14.17;;;3.87;;
4278;SDS011;2153;47.744;10.580;2023-07-29T09:54:54;22.60;;;3.73;;
4278;SDS011;2153;47.744;10.580;2023-07-29T09:57:21;12.73;;;3.57;;
4278;SDS011;2153;47.744;10.580;2023-07-29T09:59:54;11.80;;;3.10;;
4278;SDS011;2153;47.744;10.580;2023-07-29T10:02:21;13.07;;;3.50;;
4278;SDS011;2153;47.744;10.580;2023-07-29T10:04:50;12.70;;;3.80;;
4278;SDS011;2153;47.744;10.580;2023-07-29T10:07:18;13.03;;;3.50;;
4278;SDS011;2153;47.744;10.580;2023-07-29T10:09:45;14.03;;;3.80;;
4278;SDS011;2153;47.744;10.580;2023-07-29T10:12:14;14.70;;;3.80;;
4278;SDS011;2153;47.744;10.580;2023-07-29T10:14:41;13.40;;;3.60;;
4278;SDS011;2153;47.744;10.580;2023-07-29T10:17:08;13.97;;;2.90;;
4278;SDS011;2153;47.744;10.580;2023-07-29T10:19:35;14.33;;;3.40;;
4278;SDS011;2153;47.744;10.580;2023-07-29T10:22:03;13.00;;;3.07;;
4278;SDS011;2153;47.744;10.580;2023-07-29T10:24:32;13.00;;;3.17;;
4278;SDS011;2153;47.744;10.580;2023-07-29T10:27:00;13.07;;;3.07;;
4278;SDS011;2153;47.744;10.580;2023-07-29T10:29:30;13.50;;;3.13;;
4278;SDS011;2153;47.744;10.580;2023-07-29T10:32:00;12.83;;;3.20;;
4278;SDS011;2153;47.744;10.580;2023-07-29T10:34:28;12.33;;;3.10;;
4278;SDS011;2153;47.744;10.580;2023-07-29T10:36:56;12.00;;;2.70;;
4278;SDS011;2153;47.744;10.580;2023-07-29T10:39:24;14.53;;;3.43;;
4278;SDS011;2153;47.744;10.580;2023-07-29T10:41:54;13.70;;;2.97;;
4278;SDS011;2153;47.744;10.580;2023-07-29T10:47:15;13.90;;;3.20;;
4278;SDS011;2153;47.744;10.580;2023-07-29T10:49:43;12.37;;;2.90;;
4278;SDS011;2153;47.744;10.580;2023-07-29T10:52:12;14.30;;;3.20;;
4278;SDS011;2153;47.744;10.580;2023-07-29T10:54:43;12.50;;;2.50;;
4278;SDS011;2153;47.744;10.580;2023-07-29T10:57:13;13.77;;;3.20;;
4278;SDS011;2153;47.744;10.580;2023-07-29T10:59:40;12.63;;;2.97;;
4278;SDS011;2153;47.744;10.580;2023-07-29T11:02:20;15.13;;;3.40;;
4278;SDS011;2153;47.744;10.580;2023-07-29T11:04:47;13.73;;;4.07;;
4278;SDS011;2153;47.744;10.580;2023-07-29T11:07:22;12.80;;;3.10;;
4278;SDS011;2153;47.744;10.580;2023-07-29T11:09:51;13.60;;;2.90;;
4278;SDS011;2153;47.744;10.580;2023-07-29T11:12:36;14.53;;;3.40;;
4278;SDS011;2153;47.744;10.580;2023-07-29T11:15:11;13.90;;;3.73;;
4278;SDS011;2153;47.744;10.580;2023-07-29T11:17:41;12.90;;;3.13;;
4278;SDS011;2153;47.744;10.580;2023-07-29T11:20:10;16.63;;;3.70;;
4278;SDS011;2153;47.744;10.580;2023-07-29T11:22:38;15.47;;;3.53;;
4278;SDS011;2153;47.744;10.580;2023-07-29T11:25:06;14.20;;;3.43;;
4278;SDS011;2153;47.744;10.580;2023-07-29T11:27:34;14.33;;;3.50;;
4278;SDS011;2153;47.744;10.580;2023-07-29T11:30:01;13.63;;;3.63;;
4278;SDS011;2153;47.744;10.580;2023-07-29T11:32:30;12.57;;;3.00;;
4278;SDS011;2153;47.744;10.580;2023-07-29T11:35:02;13.30;;;3.60;;
4278;SDS011;2153;47.744;10.580;2023-07-29T11:37:29;12.70;;;3.50;;
4278;SDS011;2153;47.744;10.580;2023-07-29T11:39:56;17.40;;;3.40;;
4278;SDS011;2153;47.744;10.580;2023-07-29T11:42:23;14.47;;;3.40;;
4278;SDS011;2153;47.744;10.580;2023-07-29T11:44:50;14.40;;;3.87;;
4278;SDS011;2153;47.744;10.580;2023-07-29T11:47:17;11.97;;;2.97;;
4278;SDS011;2153;47.744;10.580;2023-07-29T11:49:43;12.67;;;3.00;;
4278;SDS011;2153;47.744;10.580;2023-07-29T11:52:11;12.30;;;3.00;;
4278;SDS011;2153;47.744;10.580;2023-07-29T11:54:39;12.90;;;3.00;;
4278;SDS011;2153;47.744;10.580;2023-07-29T11:57:06;13.80;;;3.53;;
4278;SDS011;2153;47.744;10.580;2023-07-29T11:59:33;14.20;;;3.60;;
4278;SDS011;2153;47.744;10.580;2023-07-29T12:02:00;16.17;;;3.57;;
4278;SDS011;2153;47.744;10.580;2023-07-29T12:04:28;13.37;;;3.67;;
4278;SDS011;2153;47.744;10.580;2023-07-29T12:06:55;15.03;;;3.90;;
4278;SDS011;2153;47.744;10.580;2023-07-29T12:09:24;13.27;;;3.40;;
4278;SDS011;2153;47.744;10.580;2023-07-29T12:11:52;12.67;;;3.33;;
4278;SDS011;2153;47.744;10.580;2023-07-29T12:14:19;15.30;;;3.40;;
4278;SDS011;2153;47.744;10.580;2023-07-29T12:16:47;15.03;;;3.20;;
4278;SDS011;2153;47.744;10.580;2023-07-29T12:19:14;14.43;;;3.47;;
4278;SDS011;2153;47.744;10.580;2023-07-29T12:21:42;12.10;;;3.10;;
4278;SDS011;2153;47.744;10.580;2023-07-29T12:24:09;13.07;;;3.77;;
4278;SDS011;2153;47.744;10.580;2023-07-29T12:26:39;13.93;;;3.10;;
4278;SDS011;2153;47.744;10.580;2023-07-29T12:29:13;13.60;;;3.27;;
4278;SDS011;2153;47.744;10.580;2023-07-29T12:31:40;12.90;;;3.60;;
4278;SDS011;2153;47.744;10.580;2023-07-29T12:34:07;12.13;;;2.70;;
4278;SDS011;2153;47.744;10.580;2023-07-29T12:36:41;13.77;;;3.80;;
4278;SDS011;2153;47.744;10.580;2023-07-29T12:39:15;14.20;;;4.00;;
4278;SDS011;2153;47.744;10.580;2023-07-29T12:41:44;13.87;;;3.20;;
4278;SDS011;2153;47.744;10.580;2023-07-29T12:44:11;13.73;;;3.80;;
4278;SDS011;2153;47.744;10.580;2023-07-29T12:46:38;13.37;;;3.70;;
4278;SDS011;2153;47.744;10.580;2023-07-29T12:49:05;15.77;;;3.70;;
4278;SDS011;2153;47.744;10.580;2023-07-29T12:51:31;15.27;;;3.43;;
4278;SDS011;2153;47.744;10.580;2023-07-29T12:53:59;12.43;;;3.07;;
4278;SDS011;2153;47.744;10.580;2023-07-29T12:56:26;14.67;;;3.60;;
4278;SDS011;2153;47.744;10.580;2023-07-29T12:58:54;12.97;;;3.40;;
4278;SDS011;2153;47.744;10.580;2023-07-29T13:01:20;13.27;;;3.53;;
4278;SDS011;2153;47.744;10.580;2023-07-29T13:03:47;15.47;;;3.73;;
4278;SDS011;2153;47.744;10.580;2023-07-29T13:06:14;15.20;;;4.27;;
4278;SDS011;2153;47.744;10.580;2023-07-29T13:08:41;12.80;;;3.57;;
4278;SDS011;2153;47.744;10.580;2023-07-29T13:11:08;13.60;;;3.67;;
4278;SDS011;2153;47.744;10.580;2023-07-29T13:13:35;13.70;;;3.90;;
4278;SDS011;2153;47.744;10.580;2023-07-29T13:16:04;13.37;;;3.53;;
4278;SDS011;2153;47.744;10.580;2023-07-29T13:18:31;13.13;;;3.60;;
4278;SDS011;2153;47.744;10.580;2023-07-29T13:20:58;14.40;;;3.33;;
4278;SDS011;2153;47.744;10.580;2023-07-29T13:23:25;13.63;;;3.70;;
4278;SDS011;2153;47.744;10.580;2023-07-29T13:25:52;13.40;;;3.63;;
4278;SDS011;2153;47.744;10.580;2023-07-29T13:28:18;13.60;;;3.90;;
4278;SDS011;2153;47.744;10.580;2023-07-29T13:30:45;16.80;;;3.90;;
4278;SDS011;2153;47.744;10.580;2023-07-29T13:33:13;19.00;;;3.60;;
4278;SDS011;2153;47.744;10.580;2023-07-29T13:35:40;13.80;;;3.90;;
4278;SDS011;2153;47.744;10.580;2023-07-29T13:38:07;20.13;;;4.30;;
4278;SDS011;2153;47.744;10.580;2023-07-29T13:40:34;13.87;;;3.50;;
4278;SDS011;2153;47.744;10.580;2023-07-29T13:43:01;13.37;;;3.80;;
4278;SDS011;2153;47.744;10.580;2023-07-29T13:45:27;13.30;;;3.67;;
4278;SDS011;2153;47.744;10.580;2023-07-29T13:47:54;13.43;;;3.80;;
4278;SDS011;2153;47.744;10.580;2023-07-29T13:50:22;13.40;;;3.80;;
4278;SDS011;2153;47.744;10.580;2023-07-29T13:52:49;13.20;;;4.03;;
4278;SDS011;2153;47.744;10.580;2023-07-29T13:55:16;14.23;;;3.80;;
4278;SDS011;2153;47.744;10.580;2023-07-29T13:57:42;13.67;;;3.80;;
4278;SDS011;2153;47.744;10.580;2023-07-29T14:00:09;15.90;;;4.20;;
4278;SDS011;2153;47.744;10.580;2023-07-29T14:02:36;15.57;;;4.50;;
4278;SDS011;2153;47.744;10.580;2023-07-29T14:05:03;14.77;;;4.23;;
4278;SDS011;2153;47.744;10.580;2023-07-29T14:07:33;15.10;;;4.23;;
4278;SDS011;2153;47.744;10.580;2023-07-29T14:10:00;15.27;;;3.90;;
4278;SDS011;2153;47.744;10.580;2023-07-29T14:12:26;15.23;;;4.67;;
4278;SDS011;2153;47.744;10.580;2023-07-29T14:14:53;14.50;;;4.27;;
4278;SDS011;2153;47.744;10.580;2023-07-29T14:17:20;14.27;;;4.10;;
4278;SDS011;2153;47.744;10.580;2023-07-29T14:19:46;13.60;;;4.13;;
4278;SDS011;2153;47.744;10.580;2023-07-29T14:22:13;16.10;;;4.50;;
4278;SDS011;2153;47.744;10.580;2023-07-29T14:24:41;13.70;;;4.30;;
4278;SDS011;2153;47.744;10.580;2023-07-29T14:27:08;20.47;;;4.10;;
4278;SDS011;2153;47.744;10.580;2023-07-29T14:29:34;14.57;;;4.20;;
4278;SDS011;2153;47.744;10.580;2023-07-29T14:32:01;15.43;;;4.50;;
4278;SDS011;2153;47.744;10.580;2023-07-29T14:34:28;14.50;;;4.37;;
4278;SDS011;2153;47.744;10.580;2023-07-29T14:36:55;14.40;;;4.57;;
4278;SDS011;2153;47.744;10.580;2023-07-29T14:39:21;13.63;;;3.57;;
4278;SDS011;2153;47.744;10.580;2023-07-29T14:41:49;15.73;;;4.10;;
4278;SDS011;2153;47.744;10.580;2023-07-29T14:44:16;13.97;;;4.40;;
4278;SDS011;2153;47.744;10.580;2023-07-29T14:46:43;15.00;;;4.43;;
4278;SDS011;2153;47.744;10.580;2023-07-29T14:49:09;14.00;;;4.10;;
4278;SDS011;2153;47.744;10.580;2023-07-29T14:51:36;13.70;;;3.80;;
4278;SDS011;2153;47.744;10.580;2023-07-29T14:54:03;14.13;;;4.13;;